Time;durP1;ratioP1;P1;durP2;ratioP2;P2;SDS_P1;SDS_P2;PMS_P1;PMS_P2;Temp;Humidity;BMP_temperature;BMP_pressure;BME280_temperature;BME280_humidity;BME280_pressure;Samples;Min_cycle;Max_cycle;Signal;HPM_P1;HPM_P2
2022/06/07 00:01:36;;;;;;;2.03;0.68;;;19.10;46.80;;;;;;5039745;28;20053;-47
2022/06/07 00:04:04;;;;;;;0.63;0.40;;;19.10;46.90;;;;;;5041867;28;20060;-44
2022/06/07 00:06:32;;;;;;;1.45;0.50;;;19.10;47.00;;;;;;5043780;28;20065;-45
2022/06/07 00:08:59;;;;;;;0.70;0.52;;;19.10;47.00;;;;;;5043491;28;20087;-44
2022/06/07 00:11:28;;;;;;;0.52;0.50;;;19.00;47.10;;;;;;5041139;28;20516;-44
2022/06/07 00:13:55;;;;;;;2.92;0.65;;;19.00;47.20;;;;;;5042372;28;20428;-46
2022/06/07 00:16:23;;;;;;;0.50;0.50;;;19.00;47.30;;;;;;5043506;28;20492;-44
2022/06/07 00:18:50;;;;;;;1.38;0.73;;;18.90;47.30;;;;;;5039551;28;20053;-44
2022/06/07 00:21:18;;;;;;;1.05;0.55;;;18.90;47.30;;;;;;5041570;28;20504;-44
2022/06/07 00:23:45;;;;;;;3.50;0.70;;;18.90;47.50;;;;;;5041606;28;20064;-44
2022/06/07 00:26:13;;;;;;;2.75;0.90;;;18.90;47.50;;;;;;5040386;28;20053;-44
2022/06/07 00:28:42;;;;;;;3.40;0.85;;;18.80;47.60;;;;;;5043653;28;20053;-44
2022/06/07 00:31:09;;;;;;;0.60;0.40;;;18.80;47.70;;;;;;5039717;28;20049;-43
2022/06/07 00:33:37;;;;;;;0.95;0.55;;;18.80;47.70;;;;;;5044094;28;20064;-44
2022/06/07 00:36:05;;;;;;;0.60;0.60;;;18.80;47.70;;;;;;5040710;28;20488;-44
2022/06/07 00:38:32;;;;;;;0.82;0.70;;;18.80;47.90;;;;;;5043683;28;20057;-46
2022/06/07 00:41:00;;;;;;;3.85;0.80;;;18.80;47.90;;;;;;5040604;28;20056;-44
2022/06/07 00:43:27;;;;;;;1.90;0.60;;;18.80;47.90;;;;;;5040869;28;20044;-45
2022/06/07 00:45:57;;;;;;;1.63;0.70;;;18.80;48.00;;;;;;5041301;28;20048;-44
2022/06/07 00:48:25;;;;;;;1.88;0.95;;;18.80;48.00;;;;;;5042692;28;20041;-44
2022/06/07 00:50:57;;;;;;;0.60;0.45;;;18.80;48.10;;;;;;5037858;28;20052;-45
2022/06/07 00:53:28;;;;;;;0.85;0.47;;;18.80;48.10;;;;;;5043509;28;20501;-46
2022/06/07 00:55:56;;;;;;;2.13;0.60;;;18.80;48.20;;;;;;5042397;28;20053;-44
2022/06/07 00:58:27;;;;;;;2.13;0.73;;;18.80;48.20;;;;;;5043296;28;20060;-44
2022/06/07 01:00:57;;;;;;;3.35;0.90;;;18.80;48.30;;;;;;5016635;28;20524;-47
2022/06/07 01:03:25;;;;;;;2.30;0.70;;;18.80;48.20;;;;;;5041253;28;20045;-43
2022/06/07 01:05:54;;;;;;;0.90;0.60;;;18.80;48.20;;;;;;5040705;28;20420;-45
2022/06/07 01:11:07;;;;;;;1.63;0.80;;;18.80;48.40;;;;;;5041304;28;20047;-44
2022/06/07 01:13:36;;;;;;;1.73;0.70;;;18.80;48.40;;;;;;5043050;28;20059;-45
2022/06/07 01:16:07;;;;;;;2.08;0.90;;;18.80;48.40;;;;;;5041870;28;20389;-43
2022/06/07 01:18:35;;;;;;;2.03;0.68;;;18.90;48.40;;;;;;5043123;28;20048;-44
2022/06/07 01:21:18;;;;;;;2.70;0.70;;;18.80;48.40;;;;;;5037266;28;20049;-43
2022/06/07 01:23:47;;;;;;;2.70;1.00;;;18.90;48.40;;;;;;5039149;28;20107;-45
2022/06/07 01:26:15;;;;;;;1.55;0.70;;;18.90;48.40;;;;;;5041841;28;20049;-44
2022/06/07 01:28:43;;;;;;;2.92;0.60;;;18.90;48.40;;;;;;5040718;28;20511;-45
2022/06/07 01:31:11;;;;;;;1.10;0.80;;;18.90;48.40;;;;;;5037727;28;20049;-44
2022/06/07 01:33:38;;;;;;;2.15;0.70;;;18.90;48.40;;;;;;5043177;28;20056;-44
2022/06/07 01:36:08;;;;;;;3.25;0.75;;;18.90;48.40;;;;;;5040090;28;20052;-43
2022/06/07 01:38:40;;;;;;;1.90;0.80;;;18.90;48.40;;;;;;5035350;28;20049;-46
2022/06/07 01:44:02;;;;;;;3.03;0.82;;;19.00;48.40;;;;;;5007238;28;20513;-45
2022/06/07 01:46:29;;;;;;;1.92;0.88;;;19.00;48.40;;;;;;5037130;28;20053;-43
2022/06/07 01:48:57;;;;;;;1.50;0.60;;;19.00;48.40;;;;;;5041888;28;20051;-44
2022/06/07 01:51:24;;;;;;;2.22;0.95;;;19.00;48.40;;;;;;5039448;28;20409;-44
2022/06/07 01:53:53;;;;;;;2.53;0.50;;;19.00;48.40;;;;;;5041762;28;20064;-46
2022/06/07 01:56:21;;;;;;;3.40;0.70;;;19.00;48.30;;;;;;5041979;28;20428;-44
2022/06/07 01:58:48;;;;;;;4.63;0.75;;;19.00;48.40;;;;;;5042168;28;20071;-43
2022/06/07 02:01:16;;;;;;;3.13;1.10;;;19.00;48.20;;;;;;5038476;28;20057;-43
2022/06/07 02:03:43;;;;;;;5.00;0.88;;;19.00;48.20;;;;;;5032663;28;20057;-43
2022/06/07 02:06:13;;;;;;;1.95;0.90;;;19.00;48.10;;;;;;5041603;28;20049;-44
2022/06/07 02:08:41;;;;;;;2.38;0.80;;;19.00;48.10;;;;;;5035173;28;20053;-49
2022/06/07 02:11:13;;;;;;;3.78;1.10;;;19.00;48.00;;;;;;5037211;28;20049;-43
2022/06/07 02:13:42;;;;;;;1.92;0.73;;;18.90;47.90;;;;;;5040479;28;20057;-44
2022/06/07 02:16:09;;;;;;;1.52;0.77;;;18.90;47.90;;;;;;5041136;28;20053;-46
2022/06/07 02:18:38;;;;;;;3.17;0.65;;;18.90;47.90;;;;;;5043083;28;20054;-44
2022/06/07 02:21:06;;;;;;;1.60;0.85;;;18.90;48.10;;;;;;5038163;28;20052;-44
2022/06/07 02:23:35;;;;;;;0.95;0.50;;;18.90;48.10;;;;;;5041091;28;20056;-44
2022/06/07 02:26:05;;;;;;;1.95;0.80;;;18.80;48.00;;;;;;5042926;28;20128;-43
2022/06/07 02:28:38;;;;;;;3.38;0.85;;;18.80;48.00;;;;;;5041250;28;20523;-44
2022/06/07 02:31:06;;;;;;;3.97;0.75;;;18.80;48.00;;;;;;5038780;28;20060;-43
2022/06/07 02:33:35;;;;;;;1.70;0.77;;;18.80;48.00;;;;;;5042377;28;20060;-44
2022/06/07 02:36:05;;;;;;;2.25;0.82;;;18.80;48.00;;;;;;5039552;28;20420;-44
2022/06/07 02:38:33;;;;;;;2.42;0.80;;;18.80;48.00;;;;;;5040828;28;20049;-44
2022/06/07 02:41:05;;;;;;;2.38;0.73;;;18.70;48.10;;;;;;5037234;28;20052;-44
2022/06/07 02:43:33;;;;;;;1.73;0.80;;;18.70;48.10;;;;;;5040333;28;20053;-44
2022/06/07 02:46:02;;;;;;;3.65;0.80;;;18.70;48.10;;;;;;5039130;28;20056;-44
2022/06/07 02:48:30;;;;;;;2.45;0.93;;;18.70;48.10;;;;;;5041157;28;20045;-44
2022/06/07 02:50:58;;;;;;;3.92;1.13;;;18.70;48.10;;;;;;5033227;28;20543;-44
2022/06/07 02:53:26;;;;;;;0.77;0.60;;;18.60;48.20;;;;;;5040792;28;20451;-44
2022/06/07 02:55:54;;;;;;;2.53;0.73;;;18.60;48.10;;;;;;5035679;28;20057;-47
2022/06/07 02:58:23;;;;;;;3.17;0.73;;;18.60;48.10;;;;;;5036658;28;20045;-45
2022/06/07 03:00:52;;;;;;;3.42;0.65;;;18.60;48.10;;;;;;5038528;28;20064;-44
2022/06/07 03:03:20;;;;;;;3.40;0.65;;;18.60;48.20;;;;;;5035271;28;20053;-48
2022/06/07 03:05:48;;;;;;;1.33;0.77;;;18.60;48.20;;;;;;5036651;28;20057;-44
2022/06/07 03:08:18;;;;;;;1.40;0.70;;;18.50;48.20;;;;;;5039870;28;20504;-44
2022/06/07 03:10:48;;;;;;;1.85;0.70;;;18.60;48.40;;;;;;5035796;28;20053;-46
2022/06/07 03:13:17;;;;;;;1.50;0.93;;;18.50;48.30;;;;;;5033087;28;20048;-44
2022/06/07 03:15:45;;;;;;;0.70;0.63;;;18.50;48.40;;;;;;5039170;28;20061;-44
2022/06/07 03:18:15;;;;;;;4.18;0.85;;;18.50;48.50;;;;;;5042251;28;20116;-44
2022/06/07 03:20:43;;;;;;;2.55;0.80;;;18.40;48.60;;;;;;5039009;28;20493;-44
2022/06/07 03:23:11;;;;;;;1.50;0.68;;;18.40;48.80;;;;;;5033375;28;20083;-46
2022/06/07 03:25:38;;;;;;;1.83;0.90;;;18.40;49.00;;;;;;5040664;28;20056;-45
2022/06/07 03:28:06;;;;;;;2.42;0.70;;;18.40;49.10;;;;;;5042302;28;20068;-47
2022/06/07 03:30:34;;;;;;;3.47;0.95;;;18.40;49.30;;;;;;5039099;28;20049;-46
2022/06/07 03:35:40;;;;;;;2.28;0.85;;;18.40;49.30;;;;;;5085987;23;20053;-45
2022/06/07 03:38:07;;;;;;;0.80;0.73;;;18.30;49.40;;;;;;5062735;28;20053;-47
2022/06/07 03:40:44;;;;;;;1.98;0.73;;;18.40;49.50;;;;;;5057327;28;20056;-45
2022/06/07 03:43:13;;;;;;;1.40;0.88;;;18.40;49.50;;;;;;5059743;28;20053;-45
2022/06/07 03:45:40;;;;;;;2.15;0.82;;;18.30;49.60;;;;;;5061677;28;20056;-46
2022/06/07 03:48:09;;;;;;;1.80;0.88;;;18.30;49.70;;;;;;5060433;28;20060;-47
2022/06/07 03:50:38;;;;;;;2.47;0.77;;;18.30;49.80;;;;;;5058116;28;20472;-46
2022/06/07 03:53:06;;;;;;;2.03;0.80;;;18.30;49.80;;;;;;5062250;28;20057;-44
2022/06/07 03:55:35;;;;;;;1.80;1.00;;;18.30;49.90;;;;;;5061864;28;20417;-48
2022/06/07 03:58:03;;;;;;;2.05;0.82;;;18.30;50.00;;;;;;5060824;28;20048;-47
2022/06/07 04:00:32;;;;;;;2.10;0.70;;;18.30;49.90;;;;;;5060769;28;20053;-46
2022/06/07 04:02:59;;;;;;;1.00;0.77;;;18.40;50.00;;;;;;5059319;28;20057;-49
2022/06/07 04:05:27;;;;;;;1.85;1.02;;;18.30;49.90;;;;;;5058480;28;20056;-49
2022/06/07 04:08:14;;;;;;;1.63;0.70;;;18.30;50.00;;;;;;5054898;28;20500;-45
2022/06/07 04:10:49;;;;;;;1.40;0.90;;;18.30;50.10;;;;;;5056815;28;20053;-49
2022/06/07 04:13:18;;;;;;;1.73;0.80;;;18.40;50.20;;;;;;5057798;28;20053;-45
2022/06/07 04:15:46;;;;;;;0.85;0.75;;;18.40;50.10;;;;;;5058876;28;20056;-46
2022/06/07 04:18:14;;;;;;;1.85;0.90;;;18.40;50.20;;;;;;5055657;28;20071;-45
2022/06/07 04:20:42;;;;;;;2.38;1.00;;;18.40;50.20;;;;;;5059267;28;20142;-47
2022/06/07 04:23:16;;;;;;;2.20;0.90;;;18.40;50.20;;;;;;5060412;28;20057;-45
2022/06/07 04:25:44;;;;;;;1.73;0.85;;;18.40;50.40;;;;;;5060113;28;20049;-47
2022/06/07 04:28:12;;;;;;;3.28;0.98;;;18.40;50.40;;;;;;5063540;28;20049;-46
2022/06/07 04:30:44;;;;;;;2.75;1.70;;;18.40;50.60;;;;;;5064828;28;20527;-45
2022/06/07 04:33:11;;;;;;;6.53;2.35;;;18.40;50.70;;;;;;5064680;28;20056;-46
2022/06/07 04:35:39;;;;;;;2.40;1.70;;;18.40;50.70;;;;;;5043413;28;20056;-46
2022/06/07 04:38:06;;;;;;;2.28;0.98;;;18.40;50.80;;;;;;5044876;28;20053;-45
2022/06/07 04:40:35;;;;;;;2.00;1.05;;;18.40;50.80;;;;;;5045049;28;20492;-46
2022/06/07 04:43:03;;;;;;;1.92;1.00;;;18.40;50.90;;;;;;5043897;28;20053;-48
2022/06/07 04:45:31;;;;;;;1.42;0.90;;;18.40;50.90;;;;;;5044408;28;20057;-46
2022/06/07 04:47:59;;;;;;;1.65;0.70;;;18.40;51.00;;;;;;5043898;28;20056;-46
2022/06/07 04:50:26;;;;;;;2.35;0.70;;;18.40;51.10;;;;;;5043269;28;20053;-45
2022/06/07 04:52:53;;;;;;;2.50;1.00;;;18.40;51.20;;;;;;5044339;28;20049;-48
2022/06/07 04:55:21;;;;;;;3.00;1.50;;;18.40;51.50;;;;;;5020034;28;20049;-46
2022/06/07 04:57:50;;;;;;;9.73;5.07;;;18.40;51.60;;;;;;5044547;28;20068;-47
2022/06/07 05:00:18;;;;;;;10.35;4.10;;;18.40;51.70;;;;;;5043499;28;20052;-47
2022/06/07 05:02:47;;;;;;;2.80;1.90;;;18.40;52.00;;;;;;5043984;28;20049;-46
2022/06/07 05:05:17;;;;;;;3.03;1.23;;;18.40;52.00;;;;;;5042699;28;20420;-45
2022/06/07 05:07:44;;;;;;;2.70;1.05;;;18.40;52.10;;;;;;5043193;28;20064;-47
2022/06/07 05:10:16;;;;;;;1.90;1.00;;;18.40;52.10;;;;;;5044000;28;20507;-48
2022/06/07 05:12:44;;;;;;;2.80;1.10;;;18.40;52.40;;;;;;5042817;28;20583;-51
2022/06/07 05:15:13;;;;;;;3.90;1.20;;;18.40;52.40;;;;;;5043489;28;20060;-47
2022/06/07 05:17:41;;;;;;;2.42;0.80;;;18.40;52.60;;;;;;5042845;28;20057;-47
2022/06/07 05:20:09;;;;;;;3.63;1.33;;;18.40;52.60;;;;;;5043271;28;20053;-48
2022/06/07 05:22:37;;;;;;;2.42;1.15;;;18.40;52.80;;;;;;5041671;28;20701;-48
2022/06/07 05:25:05;;;;;;;1.85;0.95;;;18.50;52.90;;;;;;5041535;28;20056;-49
2022/06/07 05:27:38;;;;;;;1.45;0.80;;;18.50;53.00;;;;;;5039494;28;20060;-47
2022/06/07 05:30:07;;;;;;;1.55;0.70;;;18.50;53.10;;;;;;5042836;28;20487;-46
2022/06/07 05:32:36;;;;;;;2.67;0.98;;;18.60;53.10;;;;;;5041632;28;20059;-48
2022/06/07 05:35:05;;;;;;;2.90;1.25;;;18.60;53.20;;;;;;5039738;28;20072;-47
2022/06/07 05:37:34;;;;;;;1.95;1.23;;;18.70;53.20;;;;;;5041808;28;20063;-48
2022/06/07 05:40:03;;;;;;;3.95;1.23;;;18.70;53.20;;;;;;5042399;28;20059;-47
2022/06/07 05:42:34;;;;;;;3.30;0.90;;;18.70;53.30;;;;;;5040405;28;20083;-49
2022/06/07 05:45:02;;;;;;;6.53;1.02;;;18.80;53.50;;;;;;5033486;28;20053;-49
2022/06/07 05:47:30;;;;;;;2.58;1.05;;;18.90;53.60;;;;;;5037556;28;20060;-48
2022/06/07 05:49:59;;;;;;;1.65;0.95;;;18.90;53.70;;;;;;5040497;28;20522;-47
2022/06/07 05:52:26;;;;;;;6.35;1.00;;;19.00;53.60;;;;;;5040831;28;20049;-46
2022/06/07 05:54:54;;;;;;;1.35;0.80;;;19.10;53.70;;;;;;5042939;28;20507;-48
2022/06/07 05:57:22;;;;;;;4.65;1.20;;;19.20;53.80;;;;;;5043116;28;20426;-51
2022/06/07 05:59:49;;;;;;;2.67;0.95;;;19.30;53.60;;;;;;5039921;28;20503;-47
2022/06/07 06:02:16;;;;;;;4.00;1.02;;;19.30;52.90;;;;;;5036706;28;20044;-48
2022/06/07 06:04:44;;;;;;;3.47;1.17;;;19.30;52.20;;;;;;5030291;28;20582;-49
2022/06/07 06:07:13;;;;;;;1.67;0.85;;;19.40;51.90;;;;;;5026871;28;20052;-49
2022/06/07 06:12:26;;;;;;;2.53;1.13;;;19.40;52.00;;;;;;5028253;28;20068;-47
2022/06/07 06:14:53;;;;;;;2.75;1.00;;;19.40;51.90;;;;;;5027882;28;20056;-48
2022/06/07 06:17:20;;;;;;;3.45;0.90;;;19.50;51.90;;;;;;5024929;28;20056;-45
2022/06/07 06:19:48;;;;;;;2.38;0.90;;;19.50;51.90;;;;;;5028329;28;20405;-47
2022/06/07 06:22:17;;;;;;;1.52;0.80;;;19.50;51.80;;;;;;5028468;28;20516;-45
2022/06/07 06:24:44;;;;;;;2.38;1.00;;;19.50;51.70;;;;;;5024737;28;20052;-47
2022/06/07 06:27:12;;;;;;;2.55;1.00;;;19.60;51.60;;;;;;5030734;28;20049;-45
2022/06/07 06:29:40;;;;;;;1.75;0.57;;;19.60;51.40;;;;;;5033241;28;20048;-49
2022/06/07 06:32:08;;;;;;;3.95;1.10;;;19.60;51.20;;;;;;5038633;28;21392;-48
2022/06/07 06:34:36;;;;;;;1.90;0.80;;;19.70;51.10;;;;;;5037254;28;20061;-46
2022/06/07 06:37:04;;;;;;;1.98;0.60;;;19.70;51.10;;;;;;5031333;28;20048;-47
2022/06/07 06:39:33;;;;;;;4.38;0.90;;;19.70;51.10;;;;;;5039150;28;20385;-45
2022/06/07 06:42:00;;;;;;;3.13;1.00;;;19.70;51.00;;;;;;5041118;28;20599;-50
2022/06/07 06:44:28;;;;;;;1.17;1.00;;;19.80;51.10;;;;;;5038446;28;20053;-45
2022/06/07 06:46:57;;;;;;;2.22;0.80;;;19.80;50.80;;;;;;5036502;28;20057;-49
2022/06/07 06:49:24;;;;;;;2.47;0.73;;;19.90;50.90;;;;;;5041855;28;20053;-46
2022/06/07 06:51:52;;;;;;;1.10;0.63;;;19.90;50.70;;;;;;5031864;28;20053;-51
2022/06/07 06:54:21;;;;;;;4.45;0.70;;;20.00;50.80;;;;;;5030715;28;20045;-45
2022/06/07 06:56:50;;;;;;;1.40;0.77;;;20.00;50.50;;;;;;5027808;28;20049;-46
2022/06/07 06:59:18;;;;;;;3.45;0.88;;;20.10;50.60;;;;;;5031027;28;20061;-44
2022/06/07 07:01:46;;;;;;;2.72;0.90;;;20.10;50.50;;;;;;5032500;28;20633;-45
2022/06/07 07:04:16;;;;;;;1.58;0.77;;;20.20;50.60;;;;;;5029522;28;20053;-46
2022/06/07 07:06:45;;;;;;;1.10;0.75;;;20.30;50.30;;;;;;5031778;28;21380;-45
2022/06/07 07:09:13;;;;;;;1.52;0.85;;;20.40;50.10;;;;;;5025057;28;20052;-48
2022/06/07 07:11:44;;;;;;;4.85;0.95;;;20.40;49.80;;;;;;5025904;28;20492;-50
2022/06/07 07:14:13;;;;;;;5.68;1.00;;;20.50;49.80;;;;;;5029554;28;20057;-47
2022/06/07 07:16:44;;;;;;;1.25;0.73;;;20.50;49.70;;;;;;5030879;28;20060;-51
2022/06/07 07:19:13;;;;;;;2.38;1.00;;;20.60;49.60;;;;;;5037906;28;20048;-50
2022/06/07 07:21:42;;;;;;;1.45;0.68;;;20.60;49.40;;;;;;5039089;28;20056;-47
2022/06/07 07:24:13;;;;;;;1.38;0.60;;;20.60;49.40;;;;;;5036384;28;20056;-46
2022/06/07 07:26:43;;;;;;;2.22;0.93;;;20.70;49.30;;;;;;5039504;28;20060;-48
2022/06/07 07:29:14;;;;;;;2.80;0.70;;;20.70;49.20;;;;;;5040665;28;20511;-49
2022/06/07 07:35:04;;;;;;;1.95;0.98;;;20.80;49.90;;;;;;5040327;28;20047;-45
2022/06/07 07:37:32;;;;;;;2.95;0.80;;;20.90;50.00;;;;;;5039671;28;20052;-48
2022/06/07 07:40:01;;;;;;;2.45;0.80;;;20.90;49.40;;;;;;5038996;28;20484;-45
2022/06/07 07:42:29;;;;;;;3.83;0.90;;;20.90;49.00;;;;;;5039702;28;20053;-47
2022/06/07 07:44:58;;;;;;;1.15;0.70;;;21.00;49.10;;;;;;5039270;28;20159;-46
2022/06/07 07:47:26;;;;;;;1.55;0.75;;;21.00;48.90;;;;;;5036758;28;20059;-49
2022/06/07 07:49:54;;;;;;;3.25;1.00;;;21.00;48.80;;;;;;5036533;28;20067;-46
2022/06/07 07:52:22;;;;;;;2.08;0.70;;;21.10;48.60;;;;;;5039017;28;20056;-45
2022/06/07 07:54:50;;;;;;;1.30;0.68;;;21.10;48.40;;;;;;5036071;28;20072;-49
2022/06/07 07:57:17;;;;;;;8.75;4.03;;;21.20;48.70;;;;;;5037457;28;20048;-45
2022/06/07 07:59:45;;;;;;;7.80;3.70;;;21.20;48.80;;;;;;5038910;28;20055;-47
2022/06/07 08:02:18;;;;;;;3.30;1.52;;;21.20;48.90;;;;;;5037576;28;20048;-45
2022/06/07 08:04:45;;;;;;;3.95;0.82;;;21.30;48.70;;;;;;5040737;28;20064;-45
2022/06/07 08:07:13;;;;;;;3.35;0.90;;;21.30;48.80;;;;;;5043869;28;20053;-47
2022/06/07 08:09:40;;;;;;;4.25;0.70;;;21.40;48.70;;;;;;5044439;28;20480;-50
2022/06/07 08:12:08;;;;;;;1.58;0.63;;;21.50;48.90;;;;;;5041672;28;20049;-45
2022/06/07 08:14:37;;;;;;;3.47;0.77;;;21.50;48.80;;;;;;5037265;28;20060;-48
2022/06/07 08:17:05;;;;;;;2.05;0.80;;;21.60;48.30;;;;;;5040896;28;20523;-48
2022/06/07 08:19:34;;;;;;;3.67;1.00;;;21.70;48.10;;;;;;5040911;28;20053;-46
2022/06/07 08:22:02;;;;;;;1.50;0.65;;;21.70;48.20;;;;;;5040054;28;20393;-47
2022/06/07 08:24:29;;;;;;;2.80;1.00;;;21.80;47.90;;;;;;5041385;28;20081;-46
2022/06/07 08:26:57;;;;;;;3.58;0.80;;;21.90;47.50;;;;;;5042805;28;20075;-45
2022/06/07 08:29:24;;;;;;;5.75;0.85;;;21.90;46.80;;;;;;5040173;28;20049;-53
2022/06/07 08:31:52;;;;;;;2.53;1.02;;;22.00;47.00;;;;;;5040552;28;20048;-47
2022/06/07 08:39:51;;;;;;;2.80;0.75;;;22.20;46.70;;;;;;5047229;28;20420;-48
2022/06/07 08:42:23;;;;;;;2.85;0.90;;;22.30;46.50;;;;;;5043093;28;20064;-46
2022/06/07 08:44:53;;;;;;;2.10;0.90;;;22.40;46.40;;;;;;5044728;28;20408;-47
2022/06/07 08:47:24;;;;;;;2.90;0.63;;;22.40;46.40;;;;;;5042441;28;20053;-48
2022/06/07 08:49:53;;;;;;;2.35;0.60;;;22.50;46.30;;;;;;5042156;28;20067;-47
2022/06/07 08:52:27;;;;;;;2.35;0.70;;;22.60;45.90;;;;;;5043199;28;20522;-51
2022/06/07 08:54:58;;;;;;;2.50;0.70;;;22.60;45.50;;;;;;5044567;28;20444;-45
2022/06/07 08:57:29;;;;;;;2.30;0.73;;;22.70;45.80;;;;;;5039082;28;20463;-46
2022/06/07 09:00:08;;;;;;;6.03;2.70;;;22.70;45.30;;;;;;5043219;28;20068;-48
2022/06/07 09:02:54;;;;;;;1.52;0.90;;;22.80;45.10;;;;;;5041300;28;20179;-47
2022/06/07 09:05:21;;;;;;;0.80;0.68;;;22.80;45.00;;;;;;5042415;28;20056;-47
2022/06/07 09:07:50;;;;;;;1.95;0.98;;;22.90;45.10;;;;;;5044249;28;20057;-48
2022/06/07 09:13:21;;;;;;;1.73;0.70;;;22.90;45.10;;;;;;5001277;28;20389;-50
2022/06/07 09:15:52;;;;;;;1.70;0.65;;;23.00;45.00;;;;;;5000288;28;20054;-46
2022/06/07 09:18:22;;;;;;;1.40;0.60;;;23.00;44.80;;;;;;5021389;28;20053;-46
2022/06/07 09:20:52;;;;;;;3.88;0.90;;;23.10;44.90;;;;;;5036777;28;20424;-51
2022/06/07 09:23:28;;;;;;;5.28;1.50;;;23.10;45.00;;;;;;5039887;28;20052;-45
2022/06/07 09:25:58;;;;;;;1.25;0.70;;;23.00;45.30;;;;;;5041297;28;20059;-47
2022/06/07 09:28:27;;;;;;;2.53;0.88;;;23.10;44.60;;;;;;5041580;28;20127;-53
2022/06/07 09:31:00;;;;;;;4.22;1.50;;;23.10;44.40;;;;;;5038476;28;20079;-45
2022/06/07 09:33:32;;;;;;;1.55;0.60;;;23.00;44.50;;;;;;5042279;28;20724;-45
2022/06/07 09:36:06;;;;;;;4.10;1.17;;;23.00;44.60;;;;;;5039579;28;20492;-53
2022/06/07 09:38:40;;;;;;;2.22;0.77;;;22.90;45.00;;;;;;5041643;28;20116;-55
2022/06/07 09:44:02;;;;;;;3.20;0.88;;;22.70;45.70;;;;;;5037687;28;20045;-51
2022/06/07 09:46:30;;;;;;;2.47;1.10;;;22.70;46.20;;;;;;5040677;28;20500;-54
2022/06/07 09:48:57;;;;;;;8.52;1.52;;;22.60;46.50;;;;;;5043293;28;20061;-54
2022/06/07 09:51:28;;;;;;;7.05;1.00;;;22.50;46.40;;;;;;5036750;28;20063;-51
2022/06/07 09:54:02;;;;;;;6.00;1.20;;;22.40;46.40;;;;;;5040925;28;20063;-55
2022/06/07 09:56:32;;;;;;;;;;;22.40;45.90;;;;;;5042714;28;20056;-55
2022/06/07 09:59:17;;;;;;;5.10;0.80;;;22.40;46.50;;;;;;5041832;28;19928;-55
2022/06/07 10:01:49;;;;;;;1.60;0.70;;;22.30;46.40;;;;;;5039863;28;20056;-47
2022/06/07 10:04:26;;;;;;;4.50;1.45;;;22.30;46.60;;;;;;5038268;28;20056;-52
2022/06/07 10:06:58;;;;;;;3.33;0.80;;;22.30;47.10;;;;;;5039407;28;20057;-49
2022/06/07 10:09:45;;;;;;;4.50;1.20;;;22.30;47.10;;;;;;5035915;28;20427;-47
2022/06/07 10:12:21;;;;;;;2.95;0.90;;;22.30;47.30;;;;;;5041601;28;20484;-52
2022/06/07 10:14:57;;;;;;;4.30;0.80;;;22.30;47.10;;;;;;5040933;28;20057;-46
2022/06/07 10:17:49;;;;;;;8.55;1.05;;;22.30;47.40;;;;;;5041619;28;20598;-51
2022/06/07 10:20:26;;;;;;;1.77;0.73;;;22.40;47.10;;;;;;5039723;28;20067;-47
2022/06/07 10:23:12;;;;;;;1.50;0.80;;;22.40;47.90;;;;;;5041580;28;20057;-46
2022/06/07 10:25:58;;;;;;;2.22;0.90;;;22.50;48.00;;;;;;5041351;28;20060;-50
2022/06/07 10:28:34;;;;;;;2.88;1.10;;;22.60;48.80;;;;;;5040658;28;20077;-46
2022/06/07 10:31:07;;;;;;;3.88;0.88;;;22.70;47.50;;;;;;5039180;28;20068;-48
2022/06/07 10:33:47;;;;;;;1.67;0.80;;;22.80;47.90;;;;;;5040908;28;20057;-48
2022/06/07 10:36:27;;;;;;;2.53;1.00;;;22.80;47.00;;;;;;5041076;28;20056;-47
2022/06/07 10:39:09;;;;;;;2.88;0.70;;;23.00;47.30;;;;;;5039098;28;20049;-47
2022/06/07 10:41:50;;;;;;;4.20;0.90;;;23.10;47.40;;;;;;5041202;28;20510;-50
2022/06/07 10:44:29;;;;;;;1.75;0.60;;;23.20;47.00;;;;;;5039707;28;20060;-49
2022/06/07 10:46:58;;;;;;;2.90;1.13;;;23.30;46.80;;;;;;5040868;28;20087;-48
2022/06/07 10:49:33;;;;;;;3.60;0.88;;;23.40;47.00;;;;;;5039695;28;20056;-49
2022/06/07 10:52:22;;;;;;;6.30;1.17;;;23.50;45.30;;;;;;5035472;28;20614;-53
2022/06/07 10:54:57;;;;;;;2.13;0.60;;;23.60;45.80;;;;;;5040310;28;20049;-55
2022/06/07 10:57:33;;;;;;;1.65;0.70;;;23.70;45.80;;;;;;5037962;28;20508;-49
2022/06/07 11:00:12;;;;;;;3.10;0.82;;;23.80;45.30;;;;;;5040443;28;20059;-46
2022/06/07 11:02:49;;;;;;;1.17;0.68;;;23.90;45.30;;;;;;5040683;28;20373;-46
2022/06/07 11:11:10;;;;;;;1.63;0.57;;;24.10;44.10;;;;;;5047225;28;20064;-46
2022/06/07 11:13:49;;;;;;;2.95;0.55;;;24.20;43.70;;;;;;5040778;28;20408;-47
2022/06/07 11:16:22;;;;;;;1.67;0.50;;;24.20;43.30;;;;;;5037884;28;20431;-47
2022/06/07 11:18:50;;;;;;;3.58;0.80;;;24.20;44.60;;;;;;5039266;28;20059;-51
2022/06/07 11:21:30;;;;;;;1.85;0.50;;;24.30;44.60;;;;;;5039075;28;20053;-46
2022/06/07 11:24:05;;;;;;;1.95;0.80;;;24.30;43.20;;;;;;5040100;28;20053;-46
2022/06/07 11:26:59;;;;;;;2.22;0.70;;;24.30;43.20;;;;;;5042137;28;20052;-46
2022/06/07 11:29:30;;;;;;;1.55;0.70;;;24.20;43.00;;;;;;5038235;28;20431;-46
2022/06/07 11:31:59;;;;;;;2.65;0.57;;;24.20;42.80;;;;;;5041329;28;20059;-46
2022/06/07 11:34:29;;;;;;;1.55;0.70;;;24.10;42.50;;;;;;5039466;28;20064;-45
2022/06/07 11:37:01;;;;;;;3.38;0.90;;;24.00;42.50;;;;;;5040638;28;20061;-50
2022/06/07 11:39:33;;;;;;;1.50;0.55;;;23.90;42.70;;;;;;5039904;28;20060;-45
2022/06/07 11:42:28;;;;;;;1.52;0.70;;;23.80;42.70;;;;;;5039757;28;20057;-46
2022/06/07 11:45:19;;;;;;;1.67;0.90;;;23.80;43.30;;;;;;5041509;28;20057;-46
2022/06/07 11:48:17;;;;;;;3.08;0.63;;;23.70;44.10;;;;;;5041655;28;20045;-45
2022/06/07 11:50:55;;;;;;;2.65;0.57;;;23.60;43.30;;;;;;5039118;28;20582;-45
2022/06/07 11:53:28;;;;;;;4.80;0.77;;;23.50;44.00;;;;;;5041079;28;20064;-45
2022/06/07 11:56:12;;;;;;;2.63;0.80;;;23.50;44.50;;;;;;5041275;28;20412;-46
2022/06/07 11:59:01;;;;;;;0.60;0.57;;;23.40;44.70;;;;;;5039745;28;20057;-48
2022/06/07 12:01:48;;;;;;;2.78;1.05;;;23.40;44.10;;;;;;5041018;28;20488;-45
2022/06/07 12:04:36;;;;;;;3.38;0.75;;;23.30;45.10;;;;;;5040468;28;20068;-49
2022/06/07 12:07:15;;;;;;;2.00;0.60;;;23.30;44.50;;;;;;5040534;28;20052;-45
2022/06/07 12:09:49;;;;;;;1.17;0.65;;;23.30;44.80;;;;;;5041396;28;20053;-45
2022/06/07 12:12:24;;;;;;;2.42;0.80;;;23.30;44.50;;;;;;5041089;28;20049;-45
2022/06/07 12:14:59;;;;;;;1.48;0.60;;;23.30;44.80;;;;;;5041406;28;20489;-47
2022/06/07 12:17:31;;;;;;;2.05;0.70;;;23.30;44.70;;;;;;5039093;28;20052;-47
2022/06/07 12:19:59;;;;;;;2.20;0.60;;;23.30;44.90;;;;;;5039165;28;20061;-46
2022/06/07 12:22:32;;;;;;;5.03;0.70;;;23.30;44.90;;;;;;5039046;28;20053;-50
2022/06/07 12:25:09;;;;;;;2.90;0.70;;;23.30;45.00;;;;;;5041525;28;20061;-45
2022/06/07 12:27:47;;;;;;;1.67;0.70;;;23.30;44.90;;;;;;5041650;28;20519;-45
2022/06/07 12:30:27;;;;;;;1.25;0.60;;;23.30;44.50;;;;;;5039608;28;20516;-49
2022/06/07 12:32:57;;;;;;;1.30;0.60;;;23.30;44.60;;;;;;5041563;28;20052;-46
2022/06/07 12:35:27;;;;;;;4.40;1.17;;;23.20;44.60;;;;;;5038685;28;20060;-49
2022/06/07 12:37:57;;;;;;;0.98;0.73;;;23.20;44.70;;;;;;5039537;28;20053;-56
2022/06/07 12:40:46;;;;;;;2.53;0.85;;;23.20;45.60;;;;;;5036795;28;20053;-55
2022/06/07 12:43:22;;;;;;;2.17;0.80;;;23.00;45.90;;;;;;5039736;28;20060;-56
2022/06/07 12:46:01;;;;;;;3.38;0.70;;;22.90;45.90;;;;;;5040140;28;20057;-56
2022/06/07 12:48:38;;;;;;;2.63;1.17;;;22.80;46.70;;;;;;5043058;28;20053;-58
2022/06/07 12:51:22;;;;;;;1.70;1.20;;;22.60;47.10;;;;;;5040115;28;20049;-56
2022/06/07 12:53:58;;;;;;;2.28;0.93;;;22.50;48.00;;;;;;5044015;28;20045;-57
2022/06/07 12:56:28;;;;;;;3.58;1.13;;;22.30;48.30;;;;;;5044211;28;20061;-59
2022/06/07 12:58:57;;;;;;;3.60;1.00;;;22.10;48.60;;;;;;5042468;28;20067;-54
2022/06/07 13:01:27;;;;;;;3.10;1.20;;;21.90;49.30;;;;;;5042932;28;20044;-53
2022/06/07 13:04:00;;;;;;;4.30;0.93;;;21.70;49.60;;;;;;5041597;28;20053;-53
2022/06/07 13:06:27;;;;;;;2.05;0.90;;;21.60;50.20;;;;;;5041031;28;20049;-55
2022/06/07 13:09:06;;;;;;;2.58;1.00;;;21.50;50.60;;;;;;5043688;28;20057;-56
2022/06/07 13:11:38;;;;;;;1.77;1.00;;;21.30;51.10;;;;;;5043358;28;20052;-52
2022/06/07 13:14:06;;;;;;;2.22;1.30;;;21.30;51.70;;;;;;5043051;28;20056;-55
2022/06/07 13:16:39;;;;;;;2.58;1.17;;;21.20;51.90;;;;;;5043987;28;20060;-54
2022/06/07 13:19:22;;;;;;;3.65;1.00;;;21.10;52.30;;;;;;5042653;28;20057;-57
2022/06/07 13:21:56;;;;;;;4.03;1.10;;;21.00;53.20;;;;;;5041534;28;20060;-55
2022/06/07 13:24:27;;;;;;;2.70;1.13;;;20.90;53.50;;;;;;5043856;28;20606;-59
2022/06/07 13:27:00;;;;;;;5.93;1.58;;;20.90;54.10;;;;;;5043327;28;20053;-53
2022/06/07 13:29:30;;;;;;;5.22;1.70;;;20.90;54.90;;;;;;5041641;28;20048;-58
2022/06/07 13:32:00;;;;;;;3.20;1.48;;;20.90;55.00;;;;;;5038885;28;20052;-56
2022/06/07 13:34:32;;;;;;;5.38;1.52;;;20.80;55.20;;;;;;5040936;28;20064;-54
2022/06/07 13:37:19;;;;;;;4.07;1.80;;;20.70;56.10;;;;;;5034544;28;20514;-53
2022/06/07 13:40:02;;;;;;;3.13;1.80;;;20.60;56.50;;;;;;5033531;28;20059;-55